Time;durP1;ratioP1;P1;durP2;ratioP2;P2;SDS_P1;SDS_P2;PMS_P1;PMS_P2;Temp;Humidity;BMP_temperature;BMP_pressure;BME280_temperature;BME280_humidity;BME280_pressure;Samples;Min_cycle;Max_cycle;Signal;HPM_P1;HPM_P2
2022/02/10 00:18:02;;;;;;;12.48;7.38;;;;;;;0.51;73.91;95892.44;5103101;27;20469;-66
2022/02/10 00:20:35;;;;;;;11.30;7.35;;;;;;;0.49;74.10;95889.06;5131912;27;20023;-65
2022/02/10 00:34:24;;;;;;;10.50;7.47;;;;;;;0.69;73.68;95894.50;5130401;27;20043;-65
2022/02/10 00:37:09;;;;;;;8.93;6.18;;;;;;;0.76;73.31;95893.47;5131761;27;20027;-65
2022/02/10 00:40:20;;;;;;;8.43;6.32;;;;;;;0.85;73.36;95897.47;5132338;27;20065;-65
2022/02/10 00:42:23;;;;;;;8.45;6.40;;;;;;;0.84;73.14;95899.19;5122980;27;20053;-65
2022/02/10 00:44:48;;;;;;;10.35;6.78;;;;;;;0.80;73.17;95889.09;5132365;27;20447;-65
2022/02/10 00:47:14;;;;;;;8.82;6.03;;;;;;;0.86;72.60;95883.78;5131181;27;20027;-65
2022/02/10 00:49:40;;;;;;;9.50;6.88;;;;;;;0.91;73.00;95896.47;5130698;27;20027;-65
2022/02/10 00:52:07;;;;;;;7.82;5.80;;;;;;;0.93;73.04;95894.72;5130981;27;20055;-65
2022/02/10 00:54:36;;;;;;;7.78;5.88;;;;;;;0.88;72.65;95887.16;5132023;27;20019;-65
2022/02/10 00:57:04;;;;;;;9.07;6.68;;;;;;;0.92;73.17;95887.91;5132068;27;20035;-66
2022/02/10 01:10:31;;;;;;;10.63;6.53;;;;;;;0.93;72.76;95875.06;5111538;28;20542;-65
2022/02/10 01:29:52;;;;;;;12.60;7.57;;;;;;;0.99;71.52;95874.06;5130762;28;20424;-65
2022/02/10 01:31:47;;;;;;;15.05;9.02;;;;;;;0.94;71.30;95876.75;5121456;28;20049;-65
2022/02/10 01:34:12;;;;;;;15.05;9.15;;;;;;;0.87;71.32;95868.41;5113374;28;20278;-65
2022/02/10 01:36:38;;;;;;;12.15;8.63;;;;;;;0.80;71.05;95879.69;5130479;28;20035;-65
2022/02/10 01:39:04;;;;;;;13.00;8.93;;;;;;;0.83;72.30;95879.59;5134175;27;20047;-66
2022/02/10 01:42:01;;;;;;;12.27;8.27;;;;;;;0.78;71.77;95878.03;5134572;27;20035;-65
2022/02/10 02:03:24;;;;;;;11.45;7.80;;;;;;;0.49;72.79;95878.84;5134389;27;20046;-65
2022/02/10 02:05:54;;;;;;;15.38;9.60;;;;;;;0.42;72.27;95871.34;5118005;27;20079;-65
2022/02/10 02:08:24;;;;;;;24.00;12.80;;;;;;;0.24;72.72;95874.38;5097466;28;20532;-65
2022/02/10 02:10:49;;;;;;;21.00;13.82;;;;;;;0.23;73.00;95870.16;5097362;28;20659;-65
2022/02/10 02:13:15;;;;;;;24.88;14.80;;;;;;;0.13;73.35;95872.06;5116360;27;20035;-65
2022/02/10 02:15:40;;;;;;;20.85;13.38;;;;;;;0.06;73.17;95864.63;5135498;27;20035;-65
2022/02/10 02:18:06;;;;;;;21.17;13.68;;;;;;;0.06;72.85;95859.53;5133739;27;20041;-65
2022/02/10 02:20:31;;;;;;;19.90;13.20;;;;;;;0.04;72.76;95861.25;5135245;27;20019;-65
2022/02/10 02:22:56;;;;;;;19.67;12.95;;;;;;;-0.06;72.80;95863.19;5134934;27;20035;-65
2022/02/10 02:25:22;;;;;;;16.52;11.07;;;;;;;-0.05;72.48;95858.06;5135196;27;20054;-65
2022/02/10 02:27:54;;;;;;;12.57;8.55;;;;;;;-0.02;73.36;95857.97;5133665;27;20024;-65
2022/02/10 02:30:25;;;;;;;9.85;6.38;;;;;;;-0.02;73.30;95862.25;5133832;27;20306;-65
2022/02/10 02:33:22;;;;;;;9.65;6.78;;;;;;;0.03;73.54;95859.56;5135062;27;20063;-65
2022/02/10 03:05:32;;;;;;;7.07;5.60;;;;;;;0.21;73.68;95859.13;5134445;27;20042;-65
2022/02/10 03:08:00;;;;;;;8.10;5.22;;;;;;;0.23;73.42;95857.38;5113598;27;20031;-65
2022/02/10 03:13:00;;;;;;;7.45;5.25;;;;;;;0.22;73.61;95855.66;5112360;28;20023;-65
2022/02/10 03:15:40;;;;;;;8.55;5.55;;;;;;;0.21;73.62;95861.66;5112353;28;20104;-65
2022/02/10 04:06:57;;;;;;;32.33;21.27;;;;;;;-0.63;73.71;95869.63;5125611;27;20050;-65
2022/02/10 04:12:43;;;;;;;31.42;20.85;;;;;;;-0.62;73.28;95865.38;5120205;27;20394;-65
2022/02/10 04:15:17;;;;;;;32.80;21.08;;;;;;;-0.68;73.50;95866.34;5132822;27;20119;-65
2022/02/10 04:57:03;;;;;;;36.72;20.35;;;;;;;-0.67;75.75;95878.22;5131178;27;20023;-65
2022/02/10 04:59:33;;;;;;;22.13;13.73;;;;;;;-0.76;75.81;95858.84;5114901;27;20421;-65
2022/02/10 05:21:41;;;;;;;75.85;39.70;;;;;;;-1.03;75.40;95877.28;5095806;28;20033;-65
2022/02/10 05:37:18;;;;;;;44.47;25.35;;;;;;;-1.20;75.56;95890.38;5100722;28;20116;-65
2022/02/10 05:39:47;;;;;;;40.55;23.48;;;;;;;-1.17;75.13;95893.75;5110064;28;20043;-65
2022/02/10 05:45:04;;;;;;;37.45;20.50;;;;;;;-1.09;74.93;95900.38;5109601;28;20531;-65
2022/02/10 05:50:33;;;;;;;25.00;15.77;;;;;;;-1.07;74.56;95903.75;5111054;28;20024;-65
2022/02/10 05:53:24;;;;;;;20.15;12.07;;;;;;;-1.05;74.26;95915.59;5110899;28;20092;-65
2022/02/10 06:01:44;;;;;;;12.80;6.38;;;;;;;-0.99;74.54;95910.38;5108111;28;20114;-65
2022/02/10 06:44:02;;;;;;;121.38;58.42;;;;;;;-0.97;74.63;95936.69;5113396;28;20043;-65
2022/02/10 06:49:54;;;;;;;111.53;56.05;;;;;;;-1.02;75.72;95933.38;5112109;28;20036;-65
2022/02/10 06:57:54;;;;;;;117.10;61.22;;;;;;;-0.87;75.15;95928.84;5110755;28;20036;-65
2022/02/10 07:05:51;;;;;;;107.40;55.95;;;;;;;-0.78;74.91;95932.06;5115023;27;20623;-65
2022/02/10 07:08:34;;;;;;;54.80;33.40;;;;;;;-0.89;73.94;95911.03;5117427;27;20103;-65
2022/02/10 07:12:05;;;;;;;56.97;32.90;;;;;;;-0.73;74.33;95934.50;5105949;27;20193;-65
2022/02/10 07:17:06;;;;;;;45.13;27.88;;;;;;;-0.20;75.00;95940.16;5112896;27;20027;-65
2022/02/10 07:46:23;;;;;;;43.88;27.10;;;;;;;3.10;64.73;95908.25;5112175;28;20359;-65
2022/02/10 07:47:24;;;;;;;48.63;30.02;;;;;;;3.54;63.98;95912.66;5094095;28;20044;-65
2022/02/10 07:50:08;;;;;;;45.60;28.35;;;;;;;4.05;62.02;95911.53;5092539;28;20032;-65
2022/02/10 07:58:26;;;;;;;40.38;25.55;;;;;;;5.48;57.85;95913.19;5077158;28;20034;-65
2022/02/10 08:56:12;;;;;;;26.65;17.30;;;;;;;5.94;58.59;95893.88;5091936;28;20036;-66
2022/02/10 09:09:14;;;;;;;28.98;19.55;;;;;;;5.86;60.47;95900.28;5073409;28;20371;-66
2022/02/10 10:04:42;;;;;;;30.13;16.73;;;;;;;5.93;61.42;95856.09;5094891;28;20036;-66
2022/02/10 10:10:15;;;;;;;23.88;15.10;;;;;;;5.93;61.28;95862.97;5093780;28;20093;-66
2022/02/10 10:15:23;;;;;;;23.27;14.65;;;;;;;6.11;61.64;95854.38;5093155;28;20115;-66
2022/02/10 10:21:24;;;;;;;23.52;16.35;;;;;;;6.16;61.86;95842.09;5093919;28;20501;-66
2022/02/10 10:26:55;;;;;;;24.85;16.73;;;;;;;6.20;62.21;95835.03;5094698;28;20031;-66
2022/02/10 10:57:17;;;;;;;32.08;19.75;;;;;;;6.59;62.30;95788.31;5092581;28;20571;-66
2022/02/10 13:02:55;;;;;;;39.70;26.05;;;;;;;8.93;54.39;95659.44;5091562;28;20035;-66
2022/02/10 13:23:51;;;;;;;48.42;31.20;;;;;;;9.45;52.47;95650.09;5089739;28;20120;-66
2022/02/10 14:18:21;;;;;;;33.95;22.55;;;;;;;9.38;52.51;95615.94;5090426;28;20318;-66
2022/02/10 14:21:11;;;;;;;35.28;21.55;;;;;;;9.39;52.97;95613.25;5090755;28;20028;-66
2022/02/10 14:28:34;;;;;;;32.63;21.73;;;;;;;9.36;53.60;95608.28;5072761;28;20032;-66
2022/02/10 14:31:01;;;;;;;32.17;19.23;;;;;;;9.31;53.89;95605.16;5089140;28;20409;-67
2022/02/10 14:33:30;;;;;;;29.70;19.48;;;;;;;9.32;54.11;95605.97;5089120;28;20024;-66
2022/02/10 14:36:06;;;;;;;26.17;18.13;;;;;;;9.30;54.22;95606.06;5090609;28;20502;-66
2022/02/10 15:56:58;;;;;;;;;;;;;;;5.47;62.50;95577.31;5091881;28;20028;-66
2022/02/10 16:18:48;;;;;;;31.02;21.30;;;;;;;4.91;62.96;95576.63;5122597;27;20519;-66
2022/02/10 16:21:27;;;;;;;32.22;20.70;;;;;;;4.75;63.39;95575.72;5112938;27;20034;-66
2022/02/10 16:24:00;;;;;;;30.77;19.75;;;;;;;4.66;63.66;95576.16;5101733;28;20052;-66
2022/02/10 16:26:34;;;;;;;36.40;21.05;;;;;;;4.65;64.48;95580.47;5092334;28;20051;-66
2022/02/10 16:29:01;;;;;;;32.90;22.08;;;;;;;4.67;64.58;95572.66;5117169;27;20403;-64
2022/02/10 16:31:27;;;;;;;36.28;22.15;;;;;;;4.64;64.52;95578.78;5098400;27;20031;-68
2022/02/10 16:33:52;;;;;;;37.75;23.00;;;;;;;4.66;64.53;95581.31;5113367;27;20040;-67
2022/02/10 16:36:18;;;;;;;39.00;21.48;;;;;;;4.64;64.58;95571.06;5129103;27;20036;-69
2022/02/10 16:38:44;;;;;;;38.90;22.25;;;;;;;4.72;64.21;95580.19;5099068;27;20031;-67
2022/02/10 16:41:11;;;;;;;38.97;21.05;;;;;;;4.82;64.01;95586.53;5078619;28;20027;-71
2022/02/10 16:43:36;;;;;;;29.90;19.80;;;;;;;4.87;63.96;95584.56;5083040;28;20412;-68
2022/02/10 16:46:02;;;;;;;35.30;20.10;;;;;;;4.93;63.77;95579.13;5108354;27;20032;-67
2022/02/10 16:48:33;;;;;;;31.50;19.55;;;;;;;4.92;63.69;95575.72;5097724;28;20036;-68
2022/02/10 16:50:59;;;;;;;35.50;19.27;;;;;;;5.00;63.62;95579.69;5110035;27;20104;-68
2022/02/10 16:53:26;;;;;;;32.65;19.40;;;;;;;5.10;63.01;95580.91;5110831;27;20766;-67
2022/02/10 16:56:03;;;;;;;31.98;19.00;;;;;;;5.08;62.79;95580.97;5114201;27;20026;-67
2022/02/10 17:03:51;;;;;;;29.88;18.42;;;;;;;5.19;62.43;95588.16;5129025;27;20035;-68
2022/02/10 17:17:45;;;;;;;26.77;16.02;;;;;;;5.14;61.54;95588.38;5023094;28;20529;-66
2022/02/10 17:20:28;;;;;;;23.65;14.55;;;;;;;5.10;61.40;95586.88;5099438;28;20115;-69
2022/02/10 17:25:41;;;;;;;20.50;13.68;;;;;;;4.80;62.23;95591.78;5110805;28;20065;-67
2022/02/10 17:28:09;;;;;;;20.73;13.57;;;;;;;4.73;62.47;95592.13;5096077;28;20066;-67
2022/02/10 17:33:26;;;;;;;22.10;12.55;;;;;;;4.73;62.15;95592.13;5130225;28;20046;-66
2022/02/10 17:41:39;;;;;;;17.33;12.13;;;;;;;4.69;62.12;95605.16;5112151;28;20043;-68
2022/02/10 17:51:58;;;;;;;21.30;10.98;;;;;;;4.63;62.04;95607.19;5103282;28;20081;-68
2022/02/10 17:54:24;;;;;;;16.88;10.00;;;;;;;4.59;61.91;95596.19;5106904;28;20024;-69
2022/02/10 17:56:50;;;;;;;19.13;10.18;;;;;;;4.61;61.77;95599.53;5088650;28;20458;-68
2022/02/10 17:59:16;;;;;;;16.30;10.88;;;;;;;4.57;61.72;95594.59;5123326;28;20028;-68
2022/02/10 18:01:45;;;;;;;16.13;10.23;;;;;;;4.47;61.84;95591.63;5110923;28;20054;-68
2022/02/10 18:04:11;;;;;;;16.38;10.00;;;;;;;4.44;62.50;95590.00;5089856;28;20062;-68
2022/02/10 18:06:41;;;;;;;14.98;9.07;;;;;;;4.41;62.36;95594.47;5126363;28;20023;-68
2022/02/10 18:14:27;;;;;;;14.38;8.60;;;;;;;4.40;61.82;95600.50;5111156;28;20034;-69
2022/02/10 18:17:04;;;;;;;15.25;8.85;;;;;;;4.38;61.92;95589.47;5076941;28;20027;-68
2022/02/10 18:19:42;;;;;;;12.85;8.02;;;;;;;4.42;61.99;95591.00;5095051;28;20110;-68
2022/02/10 19:10:14;;;;;;;14.30;8.88;;;;;;;4.41;60.69;95623.59;5122287;27;20042;-67
2022/02/10 19:12:46;;;;;;;12.93;8.07;;;;;;;4.37;61.12;95616.09;5120388;27;20034;-67
2022/02/10 19:15:18;;;;;;;16.50;9.07;;;;;;;4.34;61.08;95618.81;5119357;27;20057;-68
2022/02/10 19:17:44;;;;;;;13.90;8.60;;;;;;;4.35;60.89;95616.19;5104481;27;20495;-67
2022/02/10 19:20:10;;;;;;;15.18;9.38;;;;;;;4.35;60.90;95620.50;5100469;27;20028;-67
2022/02/10 19:22:35;;;;;;;16.38;9.38;;;;;;;4.29;61.25;95624.19;5122460;27;20545;-67
2022/02/10 19:25:01;;;;;;;12.07;8.10;;;;;;;4.23;61.30;95619.28;5110913;27;20128;-68
2022/02/10 19:27:26;;;;;;;14.82;9.02;;;;;;;4.20;61.24;95624.56;5113027;27;20570;-68
2022/02/10 19:29:58;;;;;;;14.82;8.75;;;;;;;4.23;61.07;95629.56;5098574;27;20026;-67
2022/02/10 19:32:32;;;;;;;14.27;8.55;;;;;;;4.11;60.89;95612.97;5110875;27;20088;-67
2022/02/10 19:34:58;;;;;;;13.65;9.77;;;;;;;4.20;61.13;95632.28;5098541;28;22542;-67
2022/02/10 19:37:25;;;;;;;14.15;10.07;;;;;;;4.14;61.46;95630.81;5126796;27;20019;-67
2022/02/10 19:40:00;;;;;;;14.88;9.55;;;;;;;4.14;61.54;95625.69;5096678;27;20019;-67
2022/02/10 19:42:29;;;;;;;15.07;10.02;;;;;;;4.10;61.44;95644.72;5118147;27;20134;-68
2022/02/10 19:44:57;;;;;;;15.27;10.57;;;;;;;4.11;61.67;95643.81;5103792;27;20020;-68
2022/02/10 19:47:23;;;;;;;17.10;10.35;;;;;;;4.07;61.48;95638.88;5094150;28;20132;-67
2022/02/10 19:49:48;;;;;;;15.52;10.18;;;;;;;4.06;61.31;95643.19;5105239;27;20035;-67
2022/02/10 19:52:15;;;;;;;16.88;11.15;;;;;;;4.02;61.49;95636.53;5094936;28;20177;-67
2022/02/10 19:54:47;;;;;;;17.52;10.90;;;;;;;3.96;61.31;95637.63;5111118;27;20208;-68
2022/02/10 19:57:12;;;;;;;;;;;;;;;3.91;61.57;95637.00;5096022;28;20417;-67
2022/02/10 19:59:37;;;;;;;17.35;10.23;;;;;;;3.82;61.93;95634.81;5112912;28;19911;-69
2022/02/10 20:02:05;;;;;;;14.82;9.93;;;;;;;3.78;61.71;95633.28;5112668;28;20047;-69
2022/02/10 20:04:31;;;;;;;18.90;10.10;;;;;;;3.79;61.80;95629.81;5111417;28;20024;-69
2022/02/10 20:06:56;;;;;;;16.77;10.10;;;;;;;3.86;61.70;95635.53;5113185;28;20036;-69
2022/02/10 20:09:21;;;;;;;19.60;10.88;;;;;;;3.76;61.66;95625.66;5088247;28;20024;-69
2022/02/10 20:11:51;;;;;;;15.63;9.73;;;;;;;3.75;61.85;95630.84;5107401;28;20032;-69
2022/02/10 20:14:21;;;;;;;15.02;10.30;;;;;;;3.73;61.66;95633.50;5091447;28;20024;-70
2022/02/10 20:16:46;;;;;;;13.88;10.23;;;;;;;3.72;61.83;95636.94;5090282;28;20035;-68
2022/02/10 20:19:12;;;;;;;18.20;10.25;;;;;;;3.75;61.61;95633.41;5108038;28;20437;-67
2022/02/10 20:21:37;;;;;;;16.63;10.75;;;;;;;3.75;61.78;95638.53;5106536;28;20031;-68
2022/02/10 20:24:03;;;;;;;17.23;10.68;;;;;;;3.66;62.26;95638.94;5110639;28;20149;-68
2022/02/10 20:26:29;;;;;;;17.08;10.68;;;;;;;3.66;62.25;95641.53;5109598;28;20033;-67
2022/02/10 20:28:54;;;;;;;16.77;10.63;;;;;;;3.54;62.52;95643.72;5092554;28;20469;-68
2022/02/10 20:31:20;;;;;;;17.90;10.63;;;;;;;3.49;62.95;95647.38;5111246;28;20495;-69
2022/02/10 20:33:46;;;;;;;19.60;11.52;;;;;;;3.53;62.77;95652.28;5109357;28;20019;-69
2022/02/10 20:36:12;;;;;;;23.50;12.80;;;;;;;3.61;63.19;95643.44;5092457;28;20045;-68
2022/02/10 20:38:42;;;;;;;19.55;11.73;;;;;;;3.65;62.57;95632.97;5090601;28;20490;-67
2022/02/10 20:41:12;;;;;;;17.00;10.18;;;;;;;3.68;62.05;95634.59;5110626;28;20070;-69
2022/02/10 20:43:38;;;;;;;15.75;9.70;;;;;;;3.62;62.17;95627.94;5109504;28;20023;-67
2022/02/10 20:46:07;;;;;;;15.43;9.75;;;;;;;3.57;61.69;95628.16;5092531;28;20027;-67
2022/02/10 20:48:34;;;;;;;16.15;9.25;;;;;;;3.50;61.33;95607.94;5109231;28;20019;-69
2022/02/10 20:50:59;;;;;;;16.25;9.57;;;;;;;3.50;61.09;95613.06;5109428;28;20036;-69
2022/02/10 20:53:26;;;;;;;14.98;9.30;;;;;;;3.45;61.54;95610.69;5093630;28;20030;-69
2022/02/10 20:55:53;;;;;;;15.50;9.85;;;;;;;3.41;61.42;95601.44;5110486;28;20031;-68
2022/02/10 20:58:20;;;;;;;17.42;10.32;;;;;;;3.32;61.61;95614.69;5110467;28;20032;-69
2022/02/10 21:00:46;;;;;;;14.88;10.13;;;;;;;3.31;61.77;95592.44;5111823;28;20545;-69
2022/02/10 21:03:13;;;;;;;17.08;10.93;;;;;;;3.34;61.95;95593.16;5110301;28;20088;-69
2022/02/10 21:05:41;;;;;;;22.02;11.80;;;;;;;3.30;61.84;95583.91;5110494;28;20102;-69
2022/02/10 21:08:29;;;;;;;16.08;10.60;;;;;;;3.28;61.65;95577.16;5110230;28;20095;-69
2022/02/10 21:10:54;;;;;;;14.77;9.57;;;;;;;3.34;61.62;95584.59;5110276;27;20031;-68
2022/02/10 21:13:21;;;;;;;16.63;10.13;;;;;;;3.44;61.41;95580.75;5093204;28;20084;-68
2022/02/10 21:15:47;;;;;;;15.50;9.90;;;;;;;3.48;61.71;95577.19;5110340;28;20036;-68
2022/02/10 21:18:14;;;;;;;17.27;10.50;;;;;;;3.41;62.05;95573.19;5111427;28;20506;-68
2022/02/10 21:20:41;;;;;;;16.50;9.75;;;;;;;3.30;61.95;95577.94;5110355;28;20076;-68
2022/02/10 21:23:31;;;;;;;13.60;9.32;;;;;;;3.30;62.78;95583.09;5093166;28;20038;-68
2022/02/10 21:25:57;;;;;;;15.43;9.73;;;;;;;3.30;63.09;95593.34;5110490;28;20032;-68
2022/02/10 21:28:30;;;;;;;12.95;9.45;;;;;;;3.34;62.82;95592.31;5110047;28;20023;-68
2022/02/10 21:30:58;;;;;;;14.13;9.02;;;;;;;3.24;63.06;95578.22;5094326;28;20035;-68
2022/02/10 21:33:44;;;;;;;15.13;9.52;;;;;;;3.23;62.71;95595.34;5109982;28;20036;-70
2022/02/10 21:36:46;;;;;;;14.48;9.43;;;;;;;3.18;62.75;95584.44;5110286;28;20063;-68
2022/02/10 22:18:59;;;;;;;19.48;10.65;;;;;;;2.49;63.59;95542.78;5114103;28;20037;-68
2022/02/10 22:21:30;;;;;;;20.20;10.57;;;;;;;2.44;63.94;95554.03;5113837;28;20481;-68
2022/02/10 22:23:56;;;;;;;14.98;10.82;;;;;;;2.41;64.25;95554.16;5114589;28;20059;-68
2022/02/10 22:26:25;;;;;;;18.23;10.95;;;;;;;2.40;64.25;95549.09;5113600;28;20065;-68
2022/02/10 22:29:05;;;;;;;16.67;10.77;;;;;;;2.35;63.93;95553.56;5096987;28;20035;-68
2022/02/10 22:31:41;;;;;;;15.85;10.15;;;;;;;2.36;64.05;95553.50;5113848;28;20028;-68
2022/02/10 22:36:47;;;;;;;15.55;9.32;;;;;;;2.36;64.11;95550.09;5098238;28;20101;-68
2022/02/10 22:39:13;;;;;;;14.40;10.00;;;;;;;2.35;63.58;95553.56;5096163;28;20047;-68
2022/02/10 22:41:38;;;;;;;15.38;10.30;;;;;;;2.28;63.70;95563.22;5096548;28;20077;-68
2022/02/10 22:44:04;;;;;;;15.05;9.70;;;;;;;2.26;63.84;95559.03;5079078;28;20028;-68
2022/02/10 22:46:30;;;;;;;15.95;9.25;;;;;;;2.24;63.96;95557.38;5113271;28;20484;-68
2022/02/10 22:48:56;;;;;;;15.27;10.52;;;;;;;2.15;63.86;95554.34;5114147;28;20035;-68
2022/02/10 22:51:22;;;;;;;17.48;10.80;;;;;;;2.13;63.87;95549.25;5113200;28;20080;-68
2022/02/10 22:53:48;;;;;;;14.65;9.55;;;;;;;2.18;63.75;95557.59;5095926;28;20061;-68
2022/02/10 22:56:16;;;;;;;15.95;10.00;;;;;;;2.11;63.90;95543.34;5096035;28;20032;-68
2022/02/10 22:58:42;;;;;;;14.25;9.60;;;;;;;2.07;64.35;95544.38;5114088;28;20036;-68
2022/02/10 23:01:08;;;;;;;13.55;8.98;;;;;;;2.04;64.37;95547.06;5095837;28;20039;-68
2022/02/10 23:03:36;;;;;;;14.15;9.00;;;;;;;2.00;64.32;95532.66;5095748;28;20490;-68
2022/02/10 23:06:02;;;;;;;14.50;9.23;;;;;;;1.95;64.50;95532.00;5095748;28;20077;-67
2022/02/10 23:08:28;;;;;;;14.40;9.48;;;;;;;1.93;64.46;95531.25;5111805;28;20110;-67
2022/02/10 23:10:53;;;;;;;15.40;9.35;;;;;;;1.88;65.28;95531.41;5095885;28;20032;-68
2022/02/10 23:13:28;;;;;;;15.85;10.10;;;;;;;1.92;64.41;95532.13;5078564;28;20046;-68
2022/02/10 23:15:54;;;;;;;14.30;9.32;;;;;;;1.90;64.75;95528.81;5096190;28;20027;-68
2022/02/10 23:18:30;;;;;;;12.63;8.75;;;;;;;1.89;64.96;95530.50;5112718;28;20071;-67
2022/02/10 23:20:58;;;;;;;16.98;10.10;;;;;;;1.88;65.08;95535.69;5113909;28;20023;-68
2022/02/10 23:23:25;;;;;;;14.38;9.35;;;;;;;1.85;64.61;95523.00;5112033;28;20063;-68
2022/02/10 23:25:51;;;;;;;15.02;9.13;;;;;;;1.88;64.85;95517.75;5113835;28;20031;-67
2022/02/10 23:28:18;;;;;;;15.70;9.73;;;;;;;1.80;65.29;95512.91;5112210;28;20486;-68
2022/02/10 23:30:46;;;;;;;15.32;9.35;;;;;;;1.78;64.32;95522.38;5112286;28;20038;-67
2022/02/10 23:33:19;;;;;;;15.15;10.10;;;;;;;1.68;65.06;95513.38;5078927;28;20028;-68
2022/02/10 23:38:22;;;;;;;15.52;9.85;;;;;;;1.67;66.10;95507.44;5113329;28;20028;-68
2022/02/10 23:43:33;;;;;;;20.83;11.43;;;;;;;1.68;65.95;95495.44;5101339;28;20122;-68
2022/02/10 23:45:58;;;;;;;19.83;10.50;;;;;;;1.71;66.14;95503.84;5112064;28;20032;-68
2022/02/10 23:48:25;;;;;;;18.08;9.98;;;;;;;1.73;66.14;95502.06;5113082;28;20049;-68
2022/02/10 23:50:51;;;;;;;32.30;13.20;;;;;;;1.77;66.03;95511.31;5111609;28;20489;-67
2022/02/10 23:53:16;;;;;;;28.95;13.00;;;;;;;1.69;65.06;95513.31;5111750;28;20027;-67
2022/02/10 23:55:42;;;;;;;28.17;13.43;;;;;;;1.59;65.65;95513.69;5113147;28;20040;-67
